Time;durP1;ratioP1;P1;durP2;ratioP2;P2;SDS_P1;SDS_P2;PMS_P1;PMS_P2;Temp;Humidity;BMP_temperature;BMP_pressure;BME280_temperature;BME280_humidity;BME280_pressure;Samples;Min_cycle;Max_cycle;Signal;HPM_P1;HPM_P2
2023/12/03 00:01:45;;;;;;;27.38;10.68;;;;;;;-1.26;59.51;97513.19;4956294;28;20023;-78
2023/12/03 00:04:10;;;;;;;25.10;12.05;;;;;;;-1.30;59.40;97511.91;4970894;28;20053;-78
2023/12/03 00:06:36;;;;;;;23.08;10.38;;;;;;;-1.32;58.94;97514.63;4970972;28;20034;-84
2023/12/03 00:09:01;;;;;;;26.30;12.50;;;;;;;-1.44;59.16;97511.59;4955506;28;20506;-84
2023/12/03 00:11:26;;;;;;;25.00;11.32;;;;;;;-1.41;59.48;97521.47;4990873;28;20453;-85
2023/12/03 00:13:54;;;;;;;24.27;10.70;;;;;;;-1.39;59.06;97514.47;5007341;28;20478;-84
2023/12/03 00:16:19;;;;;;;28.15;11.32;;;;;;;-1.47;59.48;97506.81;4973699;28;20335;-84
2023/12/03 00:18:45;;;;;;;22.35;10.90;;;;;;;-1.39;59.54;97514.47;4948158;28;20030;-85
2023/12/03 00:21:10;;;;;;;26.08;12.05;;;;;;;-1.39;59.74;97519.59;4997398;28;20061;-85
2023/12/03 00:23:35;;;;;;;27.17;11.98;;;;;;;-1.40;59.49;97525.63;4991445;28;20452;-85
2023/12/03 00:26:01;;;;;;;24.98;12.52;;;;;;;-1.47;59.41;97506.81;4978130;28;20042;-84
2023/12/03 00:28:26;;;;;;;27.02;11.60;;;;;;;-1.38;59.35;97512.72;4991164;28;20033;-83
2023/12/03 00:30:51;;;;;;;25.90;11.82;;;;;;;-1.38;59.42;97513.50;5006113;28;20038;-84
2023/12/03 00:33:17;;;;;;;24.30;11.45;;;;;;;-1.28;59.29;97525.34;5006066;28;20043;-84
2023/12/03 00:35:42;;;;;;;25.08;11.20;;;;;;;-1.29;59.48;97518.63;5006752;28;20497;-84
2023/12/03 00:38:07;;;;;;;28.73;11.90;;;;;;;-1.25;59.59;97519.88;4990195;28;20037;-84
2023/12/03 00:40:33;;;;;;;26.00;11.27;;;;;;;-1.25;59.56;97515.59;4965211;28;20034;-85
2023/12/03 00:42:59;;;;;;;26.30;12.68;;;;;;;-1.27;59.04;97501.38;4955375;28;20064;-84
2023/12/03 00:45:27;;;;;;;29.58;12.32;;;;;;;-1.18;59.37;97518.31;4968000;28;20263;-84
2023/12/03 00:47:52;;;;;;;28.25;13.02;;;;;;;-1.25;59.43;97518.16;4982804;28;20038;-84
2023/12/03 00:50:18;;;;;;;28.33;11.93;;;;;;;-1.25;59.73;97525.81;4990584;28;20046;-85
2023/12/03 00:52:43;;;;;;;26.38;11.82;;;;;;;-1.30;59.12;97527.22;4992558;28;20030;-84
2023/12/03 00:55:08;;;;;;;27.95;12.75;;;;;;;-1.38;59.50;97525.47;5004407;28;20068;-85
2023/12/03 00:57:34;;;;;;;28.00;12.40;;;;;;;-1.40;59.66;97528.19;4990304;28;20095;-84
2023/12/03 00:59:59;;;;;;;27.08;11.60;;;;;;;-1.46;59.33;97521.16;4990415;28;20426;-82
2023/12/03 01:02:25;;;;;;;27.30;12.38;;;;;;;-1.50;59.26;97519.91;4972112;28;20358;-84
2023/12/03 01:04:50;;;;;;;25.92;11.30;;;;;;;-1.52;59.58;97525.16;4970974;28;20126;-84
2023/12/03 01:07:16;;;;;;;26.05;12.38;;;;;;;-1.53;59.34;97532.97;4971119;28;20057;-85
2023/12/03 01:09:41;;;;;;;29.30;12.85;;;;;;;-1.60;59.43;97529.47;4970945;28;20045;-84
2023/12/03 01:12:07;;;;;;;28.70;12.35;;;;;;;-1.60;59.74;97537.13;4971966;28;20114;-84
2023/12/03 01:14:32;;;;;;;27.73;11.85;;;;;;;-1.52;59.64;97534.56;5006669;28;20040;-84
2023/12/03 01:16:57;;;;;;;31.10;14.02;;;;;;;-1.44;59.68;97547.34;4975194;28;20533;-85
2023/12/03 01:19:23;;;;;;;29.55;13.93;;;;;;;-1.42;59.78;97549.72;4943888;28;20043;-84
2023/12/03 01:21:48;;;;;;;30.70;13.55;;;;;;;-1.42;59.77;97540.34;4997021;28;20033;-84
2023/12/03 01:24:14;;;;;;;28.02;12.85;;;;;;;-1.32;59.76;97550.38;4972180;28;20510;-84
2023/12/03 01:26:39;;;;;;;30.17;12.57;;;;;;;-1.25;59.53;97550.53;4992500;28;20422;-84
2023/12/03 01:29:05;;;;;;;33.58;13.90;;;;;;;-1.23;59.84;97544.31;4990485;28;20125;-84
2023/12/03 01:31:30;;;;;;;28.15;13.18;;;;;;;-1.20;59.50;97540.63;4977754;28;20448;-84
2023/12/03 01:33:56;;;;;;;30.90;14.10;;;;;;;-1.14;59.85;97555.34;4983109;28;20514;-84
2023/12/03 01:36:21;;;;;;;29.42;11.40;;;;;;;-1.08;59.17;97554.72;4989694;28;20034;-84
2023/12/03 01:38:46;;;;;;;30.15;13.90;;;;;;;-1.17;59.43;97548.00;5007028;28;20040;-84
2023/12/03 01:41:12;;;;;;;34.47;14.73;;;;;;;-1.18;59.34;97559.97;4989989;28;20061;-85
2023/12/03 01:43:48;;;;;;;31.55;14.52;;;;;;;-1.00;58.98;97564.91;4990304;28;20041;-84
2023/12/03 01:46:14;;;;;;;30.48;13.23;;;;;;;-1.11;59.23;97570.34;4989583;28;20036;-84
2023/12/03 01:48:39;;;;;;;26.25;12.10;;;;;;;-1.11;59.35;97572.91;4993381;28;20034;-84
2023/12/03 01:51:06;;;;;;;27.63;12.73;;;;;;;-1.12;59.37;97568.75;4969149;28;20060;-83
2023/12/03 01:53:31;;;;;;;32.30;13.20;;;;;;;-1.03;59.33;97569.53;4994108;28;20450;-85
2023/12/03 01:55:57;;;;;;;33.25;15.00;;;;;;;-1.02;59.17;97571.16;4977591;28;20117;-80
2023/12/03 01:58:23;;;;;;;29.75;14.57;;;;;;;-1.04;58.90;97573.88;4939567;28;20027;-80
2023/12/03 02:00:48;;;;;;;31.08;14.23;;;;;;;-1.08;58.93;97582.81;4986931;28;20035;-80
2023/12/03 02:03:14;;;;;;;30.02;12.85;;;;;;;-1.06;59.02;97580.91;4966160;28;20084;-79
2023/12/03 02:05:39;;;;;;;33.55;13.73;;;;;;;-1.04;59.17;97584.09;5009201;28;20042;-80
2023/12/03 02:08:05;;;;;;;28.15;13.60;;;;;;;-1.00;59.31;97589.66;4999608;28;20081;-80
2023/12/03 02:10:30;;;;;;;29.58;13.18;;;;;;;-0.99;59.35;97586.97;4993407;28;20029;-79
2023/12/03 02:12:57;;;;;;;30.23;13.68;;;;;;;-1.00;58.96;97590.47;5001456;28;20034;-79
2023/12/03 02:15:23;;;;;;;31.30;12.77;;;;;;;-1.01;58.96;97583.78;5000558;28;20092;-79
2023/12/03 02:17:49;;;;;;;32.40;13.48;;;;;;;-0.88;59.28;97593.50;4977090;28;20030;-79
2023/12/03 02:20:14;;;;;;;35.47;13.82;;;;;;;-0.86;59.16;97595.91;5009129;28;20033;-79
2023/12/03 02:22:58;;;;;;;31.10;12.82;;;;;;;-0.82;59.46;97600.53;4995649;28;20509;-79
2023/12/03 02:25:23;;;;;;;29.08;12.73;;;;;;;-0.76;59.21;97599.06;4968899;28;20026;-79
2023/12/03 02:27:49;;;;;;;29.33;12.73;;;;;;;-0.71;59.38;97601.16;4997765;28;20057;-85
2023/12/03 02:30:14;;;;;;;28.30;11.63;;;;;;;-0.65;59.81;97592.81;4967791;28;20039;-85
2023/12/03 02:32:40;;;;;;;30.23;13.32;;;;;;;-0.59;59.37;97600.66;4983341;28;20091;-85
2023/12/03 02:35:05;;;;;;;29.05;12.70;;;;;;;-0.60;59.65;97586.28;4975971;28;20026;-84
2023/12/03 02:37:31;;;;;;;31.27;12.93;;;;;;;-0.60;59.71;97601.63;4976608;28;20038;-85
2023/12/03 02:39:56;;;;;;;31.02;13.75;;;;;;;-0.51;59.33;97599.84;5004473;28;20466;-84
2023/12/03 02:42:21;;;;;;;29.65;13.65;;;;;;;-0.42;59.05;97603.97;4992490;28;20116;-84
2023/12/03 02:44:47;;;;;;;31.15;13.73;;;;;;;-0.37;58.88;97598.38;4986102;28;20030;-85
2023/12/03 02:47:12;;;;;;;33.53;13.55;;;;;;;-0.39;59.02;97593.41;4992511;28;20034;-85
2023/12/03 02:49:38;;;;;;;30.52;13.32;;;;;;;-0.28;58.71;97604.25;4992777;28;20038;-85
2023/12/03 02:52:03;;;;;;;28.70;12.30;;;;;;;-0.21;58.47;97592.41;5009626;28;20041;-85
2023/12/03 02:54:29;;;;;;;30.83;12.82;;;;;;;-0.27;58.38;97585.41;4984003;28;20030;-85
2023/12/03 02:56:54;;;;;;;32.63;13.52;;;;;;;-0.20;58.57;97604.25;4992813;28;20325;-85
2023/12/03 02:59:19;;;;;;;29.83;11.73;;;;;;;-0.20;58.12;97597.34;4991732;28;20120;-86
2023/12/03 03:01:45;;;;;;;29.00;12.00;;;;;;;-0.14;58.41;97590.78;4984578;28;20053;-85
2023/12/03 03:04:10;;;;;;;30.42;13.55;;;;;;;-0.30;58.49;97583.97;4954440;28;20503;-85
2023/12/03 03:06:36;;;;;;;31.38;13.93;;;;;;;-0.08;59.03;97594.47;4968020;28;20045;-85
2023/12/03 03:09:01;;;;;;;28.67;12.73;;;;;;;-0.11;57.55;97605.00;5002232;28;20406;-83
2023/12/03 03:11:26;;;;;;;28.15;11.80;;;;;;;-0.03;58.07;97612.66;4992693;28;20038;-85
2023/12/03 03:13:52;;;;;;;29.60;13.65;;;;;;;-0.01;57.78;97608.97;5008565;28;20040;-84
2023/12/03 03:16:17;;;;;;;28.80;12.98;;;;;;;-0.10;58.09;97609.97;4975322;28;20428;-85
2023/12/03 03:18:43;;;;;;;30.92;12.35;;;;;;;-0.18;58.18;97609.22;5002231;28;20101;-85
2023/12/03 03:21:08;;;;;;;28.63;11.98;;;;;;;-0.15;58.84;97607.13;4957717;28;20046;-86
2023/12/03 03:23:35;;;;;;;30.38;13.30;;;;;;;0.02;58.56;97614.72;4977226;28;20038;-84
2023/12/03 03:26:01;;;;;;;27.27;12.15;;;;;;;0.04;58.09;97605.91;4972329;28;20039;-85
2023/12/03 03:28:26;;;;;;;31.75;12.95;;;;;;;-0.20;58.59;97625.50;4975654;28;20050;-85
2023/12/03 03:30:52;;;;;;;31.58;13.27;;;;;;;0.01;57.94;97613.94;4999088;28;20084;-85
2023/12/03 03:33:17;;;;;;;30.17;12.30;;;;;;;0.08;57.93;97624.31;4988239;28;20038;-84
2023/12/03 03:35:43;;;;;;;28.58;13.48;;;;;;;0.01;57.97;97616.50;4995547;28;20038;-86
2023/12/03 03:38:08;;;;;;;29.40;13.07;;;;;;;0.13;57.98;97619.47;4990435;28;20042;-84
2023/12/03 03:40:34;;;;;;;27.95;11.85;;;;;;;0.09;57.82;97625.91;4972116;28;20466;-85
2023/12/03 03:42:59;;;;;;;29.70;12.45;;;;;;;0.13;57.89;97622.84;4988600;28;20022;-85
2023/12/03 03:45:24;;;;;;;30.75;13.52;;;;;;;0.14;58.40;97626.22;4964045;28;20668;-85
2023/12/03 03:47:50;;;;;;;28.58;12.80;;;;;;;0.01;58.52;97620.81;4956461;28;20084;-85
2023/12/03 03:50:15;;;;;;;26.42;12.10;;;;;;;0.16;58.56;97637.09;4990306;28;20113;-85
2023/12/03 03:52:41;;;;;;;32.20;13.05;;;;;;;0.05;58.42;97615.19;5007812;28;20442;-86
2023/12/03 03:55:06;;;;;;;29.83;12.52;;;;;;;0.04;58.31;97633.28;5007131;28;20579;-85
2023/12/03 03:57:32;;;;;;;28.77;11.93;;;;;;;0.01;58.00;97628.50;4991082;28;20042;-85
2023/12/03 03:59:57;;;;;;;28.20;13.07;;;;;;;0.10;58.09;97637.72;4983807;28;20104;-86
2023/12/03 04:02:22;;;;;;;29.20;12.73;;;;;;;0.17;57.63;97641.22;4963376;28;20482;-84
2023/12/03 04:04:48;;;;;;;29.48;11.65;;;;;;;0.20;57.51;97643.44;5007385;28;20087;-85
2023/12/03 04:07:13;;;;;;;29.40;12.45;;;;;;;0.15;57.97;97631.13;4991200;28;20034;-85
2023/12/03 04:09:38;;;;;;;27.23;12.40;;;;;;;0.14;58.25;97634.69;5006608;28;20038;-85
2023/12/03 04:12:04;;;;;;;32.47;12.60;;;;;;;0.21;58.00;97639.13;5008301;28;20049;-84
2023/12/03 04:14:29;;;;;;;28.67;11.57;;;;;;;0.22;58.07;97640.72;4991096;28;20153;-86
2023/12/03 04:16:58;;;;;;;23.90;11.68;;;;;;;0.28;57.98;97640.06;4974808;28;20402;-80
2023/12/03 04:19:23;;;;;;;28.48;11.27;;;;;;;0.09;58.34;97642.06;4990652;28;20045;-80
2023/12/03 04:21:48;;;;;;;32.33;13.13;;;;;;;0.26;57.83;97657.34;4967735;28;20406;-80
2023/12/03 04:24:14;;;;;;;27.17;12.65;;;;;;;0.23;57.75;97662.81;4996381;28;20109;-80
2023/12/03 04:26:42;;;;;;;28.30;12.40;;;;;;;0.30;57.81;97661.19;4971603;28;20106;-79
2023/12/03 04:29:08;;;;;;;29.23;12.15;;;;;;;0.22;58.25;97656.09;4956132;28;20161;-79
2023/12/03 04:31:33;;;;;;;25.73;11.43;;;;;;;0.15;58.46;97656.75;4968116;28;20133;-79
2023/12/03 04:33:58;;;;;;;27.98;11.95;;;;;;;0.04;58.97;97656.34;4987257;28;20035;-80
2023/12/03 04:36:24;;;;;;;26.67;12.98;;;;;;;0.15;58.78;97668.75;4997821;28;20139;-80
2023/12/03 04:38:53;;;;;;;27.60;11.98;;;;;;;0.27;58.23;97664.06;4973577;28;20109;-80
2023/12/03 04:41:20;;;;;;;26.88;11.10;;;;;;;0.29;57.56;97662.13;4989653;28;20493;-79
2023/12/03 04:43:46;;;;;;;26.58;11.38;;;;;;;0.35;57.64;97664.84;5007229;28;20038;-80
2023/12/03 04:46:12;;;;;;;29.15;12.57;;;;;;;0.40;57.61;97669.47;4964098;28;20044;-79
2023/12/03 04:48:39;;;;;;;26.10;11.20;;;;;;;0.41;57.80;97668.50;5000239;28;20406;-79
2023/12/03 04:51:05;;;;;;;28.42;12.00;;;;;;;0.36;57.98;97673.31;4973821;28;20030;-79
2023/12/03 04:53:30;;;;;;;28.48;12.15;;;;;;;0.36;57.91;97668.19;4990838;28;20401;-79
2023/12/03 04:55:56;;;;;;;26.67;11.95;;;;;;;0.33;57.73;97663.41;4989959;28;20376;-80
2023/12/03 04:58:22;;;;;;;25.15;11.20;;;;;;;0.17;58.56;97675.31;4990022;28;20041;-80
2023/12/03 05:00:47;;;;;;;29.42;12.02;;;;;;;0.33;58.20;97668.53;4986003;28;20038;-79
2023/12/03 05:03:13;;;;;;;27.63;11.45;;;;;;;0.52;58.15;97668.13;4963142;28;20109;-80
2023/12/03 05:05:38;;;;;;;25.63;11.95;;;;;;;0.43;57.83;97658.06;5006644;28;20510;-80
2023/12/03 05:08:04;;;;;;;26.58;11.63;;;;;;;0.35;57.74;97661.50;4974047;28;20521;-80
2023/12/03 05:10:29;;;;;;;22.50;10.85;;;;;;;0.48;57.92;97659.19;4990428;28;20122;-79
2023/12/03 05:12:55;;;;;;;28.30;12.43;;;;;;;0.41;58.19;97649.78;4982423;28;20065;-79
2023/12/03 05:15:21;;;;;;;29.52;13.05;;;;;;;0.40;58.38;97664.34;4974399;28;20336;-78
2023/12/03 05:17:46;;;;;;;25.77;11.18;;;;;;;0.47;58.35;97660.16;5006864;28;20033;-79
2023/12/03 05:20:12;;;;;;;29.67;12.18;;;;;;;0.37;58.42;97654.44;5006120;28;20038;-80
2023/12/03 05:22:37;;;;;;;25.33;11.23;;;;;;;0.45;57.65;97674.88;4980752;28;20596;-78
2023/12/03 05:25:03;;;;;;;25.63;11.02;;;;;;;0.45;58.32;97667.19;5002016;28;20426;-80
2023/12/03 05:27:28;;;;;;;23.02;10.32;;;;;;;0.48;58.28;97666.06;4974271;28;20754;-79
2023/12/03 05:29:53;;;;;;;26.38;10.52;;;;;;;0.46;58.19;97665.44;4991092;28;20117;-79
2023/12/03 05:32:19;;;;;;;23.42;10.27;;;;;;;0.46;57.95;97673.91;4999125;28;20050;-79
2023/12/03 05:34:45;;;;;;;23.88;11.20;;;;;;;0.43;58.34;97663.19;4979490;28;20456;-78
2023/12/03 05:37:11;;;;;;;25.33;10.77;;;;;;;0.58;58.41;97676.09;4973785;28;20061;-80
2023/12/03 05:39:38;;;;;;;24.80;10.55;;;;;;;0.51;57.78;97669.06;4990119;28;20038;-80
2023/12/03 05:42:03;;;;;;;25.33;10.93;;;;;;;0.51;58.01;97673.41;4974734;28;20030;-80
2023/12/03 05:44:29;;;;;;;26.40;11.00;;;;;;;0.51;57.62;97671.63;5010083;28;20041;-80
2023/12/03 05:46:54;;;;;;;26.05;12.57;;;;;;;0.52;58.09;97673.25;4993734;28;20037;-80
2023/12/03 05:49:19;;;;;;;26.13;10.45;;;;;;;0.52;57.96;97670.69;4976769;28;20034;-80
2023/12/03 05:51:45;;;;;;;26.30;11.23;;;;;;;0.60;57.80;97690.38;4986599;28;20556;-79
2023/12/03 05:54:10;;;;;;;25.15;11.60;;;;;;;0.47;57.95;97664.47;4991081;28;20397;-80
2023/12/03 05:56:36;;;;;;;26.77;11.43;;;;;;;0.48;59.03;97689.94;4993649;28;20041;-78
2023/12/03 05:59:01;;;;;;;26.95;12.35;;;;;;;0.53;57.54;97687.66;4992701;28;20520;-79
2023/12/03 06:01:26;;;;;;;26.83;11.77;;;;;;;0.58;58.29;97676.09;4981536;28;20058;-79
2023/12/03 06:03:52;;;;;;;27.92;10.43;;;;;;;0.62;57.39;97683.28;4999250;28;20482;-80
2023/12/03 06:06:18;;;;;;;25.25;11.70;;;;;;;0.53;57.49;97694.53;5007847;28;20037;-79
2023/12/03 06:08:44;;;;;;;23.45;10.23;;;;;;;0.56;57.68;97700.13;5008624;28;20033;-79
2023/12/03 06:11:09;;;;;;;23.98;11.10;;;;;;;0.56;58.27;97697.56;4991743;28;20042;-80
2023/12/03 06:13:34;;;;;;;24.88;10.77;;;;;;;0.54;57.50;97691.81;4992047;28;20061;-79
2023/12/03 06:16:00;;;;;;;23.58;10.32;;;;;;;0.67;57.19;97710.97;4983005;28;20036;-79
2023/12/03 06:18:26;;;;;;;25.27;10.75;;;;;;;0.60;57.76;97695.50;4964592;28;20411;-79
2023/12/03 06:20:51;;;;;;;24.52;11.15;;;;;;;0.62;57.80;97702.97;4972777;28;20034;-80
2023/12/03 06:23:17;;;;;;;26.90;10.57;;;;;;;0.66;58.01;97694.00;4990810;28;20030;-79
2023/12/03 06:25:42;;;;;;;21.42;11.43;;;;;;;0.67;58.63;97700.72;4977766;28;20078;-79
2023/12/03 06:28:08;;;;;;;27.42;11.32;;;;;;;0.60;58.30;97699.78;4990590;28;20042;-80
2023/12/03 06:30:34;;;;;;;25.05;10.43;;;;;;;0.70;57.69;97700.38;4994159;28;20034;-79
2023/12/03 06:32:59;;;;;;;22.35;10.82;;;;;;;0.59;57.90;97698.22;4998222;28;20117;-80
2023/12/03 06:35:25;;;;;;;24.90;10.10;;;;;;;0.52;58.38;97690.41;4972357;28;20049;-80
2023/12/03 06:37:50;;;;;;;22.67;10.48;;;;;;;0.53;58.75;97690.22;4972012;28;20030;-79
2023/12/03 06:40:15;;;;;;;25.52;11.95;;;;;;;0.47;58.04;97688.31;4969094;28;20038;-84
2023/12/03 06:42:41;;;;;;;28.40;12.70;;;;;;;0.45;58.65;97697.94;4988596;28;20038;-84
2023/12/03 06:45:07;;;;;;;23.30;10.63;;;;;;;0.43;58.31;97687.06;4972606;28;20413;-84
2023/12/03 06:47:32;;;;;;;23.70;10.95;;;;;;;0.29;58.70;97682.63;4991813;28;20558;-84
2023/12/03 06:49:58;;;;;;;26.92;12.25;;;;;;;0.33;58.12;97681.34;5009047;28;20132;-84
2023/12/03 06:52:23;;;;;;;25.20;10.52;;;;;;;0.28;58.08;97688.72;4992321;28;20037;-84
2023/12/03 06:54:48;;;;;;;23.77;11.15;;;;;;;0.42;58.01;97687.25;5008240;28;20042;-83
2023/12/03 06:57:14;;;;;;;22.65;10.48;;;;;;;0.48;57.46;97679.69;4991970;28;20034;-84
2023/12/03 06:59:39;;;;;;;23.80;10.50;;;;;;;0.39;57.63;97683.22;4992860;28;20678;-84
2023/12/03 07:02:05;;;;;;;25.00;10.68;;;;;;;0.31;57.59;97696.88;4977742;28;20503;-84
2023/12/03 07:04:30;;;;;;;23.02;10.63;;;;;;;0.29;57.78;97688.56;4991862;28;20041;-84
2023/12/03 07:06:55;;;;;;;27.05;10.80;;;;;;;0.24;58.03;97698.50;4992830;28;20057;-85
2023/12/03 07:09:22;;;;;;;25.23;10.98;;;;;;;0.17;58.11;97702.66;4991997;28;20038;-84
2023/12/03 07:11:47;;;;;;;22.17;9.70;;;;;;;0.10;57.06;97699.19;4976683;28;20397;-84
2023/12/03 07:14:12;;;;;;;23.92;10.98;;;;;;;0.15;57.93;97702.03;5007848;28;20113;-84
2023/12/03 07:16:38;;;;;;;21.55;9.68;;;;;;;0.18;57.74;97705.06;4962992;28;20121;-84
2023/12/03 07:19:03;;;;;;;20.98;9.48;;;;;;;0.13;57.83;97719.34;4972944;28;20034;-84
2023/12/03 07:21:29;;;;;;;18.98;9.63;;;;;;;-0.05;57.97;97722.09;4980578;28;20038;-84
2023/12/03 07:23:54;;;;;;;23.58;9.82;;;;;;;-0.17;58.72;97713.16;4980086;28;20068;-85
2023/12/03 07:26:19;;;;;;;22.92;9.20;;;;;;;-0.13;58.37;97704.19;4979716;28;20046;-85
2023/12/03 07:28:45;;;;;;;23.33;10.20;;;;;;;-0.18;58.96;97727.72;4975829;28;20375;-84
2023/12/03 07:31:10;;;;;;;21.67;9.02;;;;;;;-0.12;58.08;97733.94;4964237;28;20076;-84
2023/12/03 07:33:36;;;;;;;25.02;10.50;;;;;;;0.03;57.82;97745.13;4988598;28;20117;-85
2023/12/03 07:36:01;;;;;;;19.27;9.30;;;;;;;0.02;57.87;97743.53;5004348;28;20030;-85
2023/12/03 07:38:28;;;;;;;22.27;10.38;;;;;;;0.00;58.44;97742.91;4972503;28;20146;-85
2023/12/03 07:40:53;;;;;;;21.75;9.90;;;;;;;-0.04;58.72;97754.41;4972335;28;20034;-85
2023/12/03 07:43:18;;;;;;;19.13;7.88;;;;;;;0.01;57.97;97762.41;4972121;28;20509;-83
2023/12/03 07:45:44;;;;;;;26.08;9.60;;;;;;;-0.05;58.88;97758.75;4979308;28;20505;-85
2023/12/03 07:48:09;;;;;;;22.63;9.73;;;;;;;0.04;57.45;97766.41;5007637;28;20038;-84
2023/12/03 07:50:34;;;;;;;24.27;10.63;;;;;;;-0.08;58.55;97755.72;5003521;28;20085;-80
2023/12/03 07:53:00;;;;;;;20.63;10.40;;;;;;;-0.07;58.61;97772.66;4987994;28;20049;-80
2023/12/03 07:55:25;;;;;;;21.55;10.13;;;;;;;-0.11;58.64;97763.69;5008267;28;20038;-80
2023/12/03 07:57:51;;;;;;;27.05;10.20;;;;;;;-0.05;58.82;97779.22;4984167;28;20650;-80
2023/12/03 08:00:17;;;;;;;24.85;11.15;;;;;;;-0.05;59.41;97768.19;4997984;28;20038;-80
2023/12/03 08:02:42;;;;;;;24.17;10.57;;;;;;;-0.09;58.72;97767.69;4979623;28;20030;-80
2023/12/03 08:05:08;;;;;;;23.83;10.45;;;;;;;-0.04;59.04;97780.78;4990312;28;20486;-79
2023/12/03 08:07:34;;;;;;;20.80;9.80;;;;;;;-0.15;58.59;97770.13;4991154;28;20552;-80
2023/12/03 08:09:59;;;;;;;23.67;10.50;;;;;;;-0.16;59.34;97760.81;4975175;28;20038;-79
2023/12/03 08:12:25;;;;;;;23.75;9.63;;;;;;;-0.08;58.54;97765.94;5004068;28;20037;-80
2023/12/03 08:14:50;;;;;;;21.77;9.50;;;;;;;-0.03;58.71;97771.38;4955440;28;20041;-79
2023/12/03 08:17:17;;;;;;;22.10;9.68;;;;;;;-0.06;59.52;97769.94;5006353;28;20406;-79
2023/12/03 08:19:42;;;;;;;22.75;9.85;;;;;;;-0.09;59.05;97751.53;5008565;28;20065;-80
2023/12/03 08:22:08;;;;;;;24.85;10.35;;;;;;;0.05;58.49;97765.44;4981226;28;20101;-80
2023/12/03 08:24:34;;;;;;;26.13;10.15;;;;;;;0.12;58.07;97754.41;4983130;28;20041;-80
2023/12/03 08:27:00;;;;;;;20.65;10.30;;;;;;;0.21;58.51;97764.59;4971194;28;20030;-79
2023/12/03 08:29:26;;;;;;;21.63;9.82;;;;;;;0.29;58.25;97755.16;4991830;28;20038;-80
2023/12/03 08:31:51;;;;;;;20.48;9.43;;;;;;;0.31;57.87;97762.66;4981837;28;20054;-80
2023/12/03 08:34:17;;;;;;;21.48;10.18;;;;;;;0.33;57.48;97760.75;4971029;28;20502;-81
2023/12/03 08:36:43;;;;;;;26.17;10.10;;;;;;;0.29;58.05;97759.47;4971350;28;20030;-80
2023/12/03 08:39:08;;;;;;;23.55;10.00;;;;;;;0.38;57.40;97755.94;4980044;28;20144;-80
2023/12/03 08:41:36;;;;;;;23.50;10.43;;;;;;;0.41;57.17;97753.03;4978109;28;20036;-80
2023/12/03 08:44:01;;;;;;;22.45;10.25;;;;;;;0.53;56.72;97761.97;5006147;28;20486;-80
2023/12/03 08:46:27;;;;;;;22.45;10.07;;;;;;;0.64;55.16;97765.13;4974724;28;20036;-79
2023/12/03 08:48:52;;;;;;;25.10;10.77;;;;;;;0.50;56.43;97762.28;4983163;28;20042;-79
2023/12/03 08:51:17;;;;;;;22.10;10.48;;;;;;;0.72;56.43;97775.34;4973639;28;20038;-79
2023/12/03 08:53:43;;;;;;;23.48;10.05;;;;;;;0.71;56.52;97771.19;5006868;28;20112;-79
2023/12/03 08:56:12;;;;;;;24.80;11.73;;;;;;;0.83;56.68;97772.41;5007883;28;20088;-80
2023/12/03 08:58:40;;;;;;;25.17;9.63;;;;;;;0.73;56.23;97766.69;5010650;28;20042;-79
2023/12/03 09:01:07;;;;;;;23.15;10.18;;;;;;;0.70;56.77;97774.69;4993716;28;20027;-85
2023/12/03 09:03:33;;;;;;;23.75;10.93;;;;;;;0.71;56.54;97771.19;4974987;28;20048;-84
2023/12/03 09:06:00;;;;;;;20.67;10.05;;;;;;;0.78;56.15;97772.13;4975491;28;20026;-85
2023/12/03 09:08:25;;;;;;;21.70;10.27;;;;;;;0.80;54.89;97774.50;4995098;28;20041;-86
2023/12/03 09:10:51;;;;;;;23.73;10.38;;;;;;;0.94;54.87;97776.34;4994556;28;20490;-84
2023/12/03 09:13:16;;;;;;;23.83;10.40;;;;;;;0.98;55.79;97784.50;4977641;28;20453;-85
2023/12/03 09:15:41;;;;;;;25.08;10.77;;;;;;;0.88;55.92;97775.28;4996497;28;20061;-84
2023/12/03 09:18:07;;;;;;;24.42;12.35;;;;;;;0.98;54.84;97777.66;4959686;28;20030;-84
2023/12/03 09:20:32;;;;;;;24.58;11.60;;;;;;;1.04;54.75;97773.59;4994852;28;20124;-85
2023/12/03 09:22:58;;;;;;;26.02;11.35;;;;;;;1.09;54.56;97776.47;5010809;28;20192;-85
2023/12/03 09:25:23;;;;;;;31.67;14.50;;;;;;;1.17;53.69;97776.41;4998756;28;20038;-84
2023/12/03 09:27:49;;;;;;;29.25;12.18;;;;;;;1.10;53.64;97783.19;4990809;28;20093;-84
2023/12/03 09:30:14;;;;;;;22.88;10.45;;;;;;;1.16;53.97;97782.50;4976582;28;20053;-85
2023/12/03 09:32:40;;;;;;;22.98;9.70;;;;;;;1.18;54.27;97780.56;4984468;28;20030;-84
2023/12/03 09:35:06;;;;;;;25.95;10.82;;;;;;;1.11;55.21;97780.47;5009743;28;20079;-84
2023/12/03 09:37:31;;;;;;;25.83;11.40;;;;;;;0.96;55.45;97777.03;4986850;28;20080;-84
2023/12/03 09:39:57;;;;;;;22.90;11.30;;;;;;;0.99;55.18;97773.31;4991064;28;20081;-84
2023/12/03 09:42:26;;;;;;;24.05;11.50;;;;;;;1.28;54.05;97765.75;4993774;28;20116;-85
2023/12/03 09:45:00;;;;;;;23.58;10.90;;;;;;;1.24;53.93;97769.63;4987038;28;20026;-85
2023/12/03 09:47:27;;;;;;;23.35;11.50;;;;;;;1.10;54.40;97770.38;4939849;28;20380;-86
2023/12/03 09:49:54;;;;;;;27.23;10.55;;;;;;;1.28;54.22;97770.88;5018229;28;20041;-85
2023/12/03 09:52:21;;;;;;;21.02;10.35;;;;;;;1.30;54.20;97758.72;4977213;28;20037;-86
2023/12/03 09:54:47;;;;;;;23.08;10.05;;;;;;;1.42;54.93;97763.41;4970351;28;20026;-85
2023/12/03 09:57:14;;;;;;;19.15;9.45;;;;;;;1.46;54.43;97752.66;4992274;28;20113;-84
2023/12/03 09:59:46;;;;;;;20.42;9.68;;;;;;;1.50;54.08;97737.72;4977639;28;20061;-85
2023/12/03 10:02:13;;;;;;;24.73;11.15;;;;;;;1.29;54.55;97746.84;4970517;28;20416;-84
2023/12/03 10:04:38;;;;;;;19.60;9.07;;;;;;;1.37;54.72;97752.88;4963484;28;20546;-86
2023/12/03 10:07:07;;;;;;;22.45;10.45;;;;;;;1.49;54.83;97746.38;4972898;28;20052;-84
2023/12/03 10:09:32;;;;;;;20.92;9.50;;;;;;;1.57;53.52;97748.88;4973830;28;20038;-80
2023/12/03 10:12:03;;;;;;;24.05;10.10;;;;;;;1.60;54.25;97748.53;4998475;28;20040;-84
2023/12/03 10:14:28;;;;;;;23.50;9.95;;;;;;;1.56;54.51;97747.31;4990542;28;20035;-85
2023/12/03 10:16:54;;;;;;;19.65;9.65;;;;;;;1.66;53.65;97753.00;4957843;28;20123;-84
2023/12/03 10:19:26;;;;;;;24.92;10.77;;;;;;;1.56;54.89;97757.56;4981510;28;20046;-85
2023/12/03 10:21:52;;;;;;;17.23;8.65;;;;;;;1.66;54.59;97759.88;4997949;28;20039;-85
2023/12/03 10:24:19;;;;;;;21.48;9.60;;;;;;;1.63;53.52;97755.91;5001313;28;20046;-84
2023/12/03 10:26:55;;;;;;;20.98;9.23;;;;;;;1.77;53.88;97750.97;4975407;28;20038;-84
2023/12/03 10:29:23;;;;;;;21.45;9.75;;;;;;;1.60;54.38;97750.31;4976448;28;20371;-83
2023/12/03 10:31:49;;;;;;;18.83;9.00;;;;;;;1.64;53.49;97749.78;5000926;28;20030;-83
2023/12/03 10:34:16;;;;;;;19.65;9.07;;;;;;;1.64;54.32;97754.91;4989416;28;20034;-84
2023/12/03 10:36:42;;;;;;;20.30;9.65;;;;;;;1.62;53.30;97745.81;5004410;28;20037;-83
2023/12/03 10:39:08;;;;;;;31.42;14.88;;;;;;;1.83;53.40;97752.84;4992652;28;20798;-82
2023/12/03 10:41:33;;;;;;;19.45;9.75;;;;;;;1.74;53.35;97751.31;4991668;28;20034;-78
2023/12/03 10:43:59;;;;;;;21.15;10.43;;;;;;;1.83;53.80;97747.72;4956340;28;20030;-78
2023/12/03 10:46:24;;;;;;;21.92;10.25;;;;;;;1.83;53.50;97745.13;4973167;28;20030;-77
2023/12/03 10:48:50;;;;;;;20.05;9.68;;;;;;;1.96;52.23;97747.13;5003628;28;20038;-78
2023/12/03 10:51:15;;;;;;;18.20;8.70;;;;;;;1.94;52.82;97749.06;4991831;28;20038;-78
2023/12/03 10:53:41;;;;;;;17.85;8.68;;;;;;;1.90;53.06;97742.69;4992429;28;20065;-78
2023/12/03 10:56:07;;;;;;;16.55;8.38;;;;;;;1.46;53.07;97733.91;5005649;28;20044;-78
2023/12/03 10:58:37;;;;;;;18.88;8.82;;;;;;;1.65;52.95;97727.50;4975972;28;20419;-77
2023/12/03 11:01:12;;;;;;;19.13;9.73;;;;;;;1.94;53.79;97734.47;4983401;28;20038;-78
2023/12/03 11:03:54;;;;;;;18.20;8.48;;;;;;;1.86;52.50;97732.75;4987630;28;20069;-78
2023/12/03 11:06:22;;;;;;;18.63;9.18;;;;;;;2.40;52.24;97726.59;4975174;28;20049;-78
2023/12/03 11:08:48;;;;;;;19.00;8.32;;;;;;;2.53;51.91;97732.88;4992179;28;20375;-78
2023/12/03 11:11:13;;;;;;;17.15;8.75;;;;;;;2.49;51.00;97718.78;4991707;28;20038;-78
2023/12/03 11:13:41;;;;;;;18.23;8.70;;;;;;;2.72;51.19;97722.03;5007783;28;20030;-77
2023/12/03 11:16:08;;;;;;;19.65;9.95;;;;;;;2.68;51.64;97717.44;4966434;28;20031;-77
2023/12/03 11:18:37;;;;;;;17.95;8.18;;;;;;;2.81;50.76;97715.81;4984230;28;20033;-77